sensor_id;sensor_type;location;lat;lon;timestamp;P1;durP1;ratioP1;P2;durP2;ratioP2
56171;SDS011;42052;41.634;-0.946;2024-02-15T00:02:21;8.00;;;3.47;;
56171;SDS011;42052;41.634;-0.946;2024-02-15T00:04:47;4.35;;;3.03;;
56171;SDS011;42052;41.634;-0.946;2024-02-15T00:07:12;7.55;;;3.50;;
56171;SDS011;42052;41.634;-0.946;2024-02-15T00:09:38;6.00;;;3.22;;
56171;SDS011;42052;41.634;-0.946;2024-02-15T00:12:04;5.88;;;3.30;;
56171;SDS011;42052;41.634;-0.946;2024-02-15T00:14:30;5.88;;;3.10;;
56171;SDS011;42052;41.634;-0.946;2024-02-15T00:16:57;5.13;;;3.08;;
56171;SDS011;42052;41.634;-0.946;2024-02-15T00:19:23;5.15;;;3.10;;
56171;SDS011;42052;41.634;-0.946;2024-02-15T00:21:49;6.90;;;3.08;;
56171;SDS011;42052;41.634;-0.946;2024-02-15T00:24:15;5.25;;;2.95;;
56171;SDS011;42052;41.634;-0.946;2024-02-15T00:26:41;7.07;;;3.42;;
56171;SDS011;42052;41.634;-0.946;2024-02-15T00:29:08;5.38;;;2.97;;
56171;SDS011;42052;41.634;-0.946;2024-02-15T00:31:34;5.30;;;3.28;;
56171;SDS011;42052;41.634;-0.946;2024-02-15T00:34:03;6.20;;;3.00;;
56171;SDS011;42052;41.634;-0.946;2024-02-15T00:36:29;5.35;;;2.90;;
56171;SDS011;42052;41.634;-0.946;2024-02-15T00:38:55;4.47;;;3.00;;
56171;SDS011;42052;41.634;-0.946;2024-02-15T00:41:21;4.90;;;2.72;;
56171;SDS011;42052;41.634;-0.946;2024-02-15T00:43:47;6.03;;;2.97;;
56171;SDS011;42052;41.634;-0.946;2024-02-15T00:46:13;6.20;;;3.00;;
56171;SDS011;42052;41.634;-0.946;2024-02-15T00:48:39;5.38;;;2.63;;
56171;SDS011;42052;41.634;-0.946;2024-02-15T00:51:06;5.53;;;2.97;;
56171;SDS011;42052;41.634;-0.946;2024-02-15T00:53:33;4.82;;;3.00;;
56171;SDS011;42052;41.634;-0.946;2024-02-15T00:55:59;3.80;;;2.55;;
56171;SDS011;42052;41.634;-0.946;2024-02-15T00:58:24;5.03;;;2.65;;
56171;SDS011;42052;41.634;-0.946;2024-02-15T01:00:52;4.85;;;2.42;;
56171;SDS011;42052;41.634;-0.946;2024-02-15T01:03:18;5.45;;;2.78;;
56171;SDS011;42052;41.634;-0.946;2024-02-15T01:05:44;4.88;;;2.80;;
56171;SDS011;42052;41.634;-0.946;2024-02-15T01:08:10;4.65;;;2.80;;
56171;SDS011;42052;41.634;-0.946;2024-02-15T01:10:36;5.75;;;2.58;;
56171;SDS011;42052;41.634;-0.946;2024-02-15T01:13:03;4.63;;;2.65;;
56171;SDS011;42052;41.634;-0.946;2024-02-15T01:15:28;5.90;;;3.20;;
56171;SDS011;42052;41.634;-0.946;2024-02-15T01:17:55;4.25;;;2.40;;
56171;SDS011;42052;41.634;-0.946;2024-02-15T01:20:21;5.45;;;2.80;;
56171;SDS011;42052;41.634;-0.946;2024-02-15T01:22:46;4.28;;;2.75;;
56171;SDS011;42052;41.634;-0.946;2024-02-15T01:25:13;4.70;;;2.95;;
56171;SDS011;42052;41.634;-0.946;2024-02-15T01:27:40;4.53;;;2.78;;
56171;SDS011;42052;41.634;-0.946;2024-02-15T01:30:07;5.25;;;3.05;;
56171;SDS011;42052;41.634;-0.946;2024-02-15T01:32:33;5.07;;;2.97;;
56171;SDS011;42052;41.634;-0.946;2024-02-15T01:34:59;4.55;;;2.67;;
56171;SDS011;42052;41.634;-0.946;2024-02-15T01:37:25;5.05;;;3.17;;
56171;SDS011;42052;41.634;-0.946;2024-02-15T01:39:51;5.22;;;2.83;;
56171;SDS011;42052;41.634;-0.946;2024-02-15T01:42:17;5.90;;;2.80;;
56171;SDS011;42052;41.634;-0.946;2024-02-15T01:44:44;4.75;;;2.83;;
56171;SDS011;42052;41.634;-0.946;2024-02-15T01:47:12;4.07;;;2.50;;
56171;SDS011;42052;41.634;-0.946;2024-02-15T01:49:39;3.97;;;2.65;;
56171;SDS011;42052;41.634;-0.946;2024-02-15T01:52:06;4.03;;;2.60;;
56171;SDS011;42052;41.634;-0.946;2024-02-15T01:54:34;3.95;;;2.60;;
56171;SDS011;42052;41.634;-0.946;2024-02-15T01:57:04;4.35;;;2.83;;
56171;SDS011;42052;41.634;-0.946;2024-02-15T01:59:30;4.68;;;2.53;;
56171;SDS011;42052;41.634;-0.946;2024-02-15T02:01:56;4.13;;;2.72;;
56171;SDS011;42052;41.634;-0.946;2024-02-15T02:04:22;5.15;;;2.90;;
56171;SDS011;42052;41.634;-0.946;2024-02-15T02:06:48;5.25;;;2.80;;
56171;SDS011;42052;41.634;-0.946;2024-02-15T02:09:14;6.57;;;2.95;;
56171;SDS011;42052;41.634;-0.946;2024-02-15T02:11:45;5.03;;;2.90;;
56171;SDS011;42052;41.634;-0.946;2024-02-15T02:14:11;4.63;;;2.55;;
56171;SDS011;42052;41.634;-0.946;2024-02-15T02:16:37;3.72;;;2.60;;
56171;SDS011;42052;41.634;-0.946;2024-02-15T02:19:04;4.43;;;2.55;;
56171;SDS011;42052;41.634;-0.946;2024-02-15T02:21:34;6.40;;;2.90;;
56171;SDS011;42052;41.634;-0.946;2024-02-15T02:24:02;4.18;;;2.75;;
56171;SDS011;42052;41.634;-0.946;2024-02-15T02:26:33;4.20;;;2.72;;
56171;SDS011;42052;41.634;-0.946;2024-02-15T02:29:02;3.97;;;2.72;;
56171;SDS011;42052;41.634;-0.946;2024-02-15T02:31:33;5.38;;;2.85;;
56171;SDS011;42052;41.634;-0.946;2024-02-15T02:33:59;3.58;;;2.90;;
56171;SDS011;42052;41.634;-0.946;2024-02-15T02:36:25;4.57;;;3.00;;
56171;SDS011;42052;41.634;-0.946;2024-02-15T02:38:52;6.10;;;3.20;;
56171;SDS011;42052;41.634;-0.946;2024-02-15T02:41:18;3.97;;;2.65;;
56171;SDS011;42052;41.634;-0.946;2024-02-15T02:43:44;3.80;;;2.70;;
56171;SDS011;42052;41.634;-0.946;2024-02-15T02:46:11;3.85;;;2.70;;
56171;SDS011;42052;41.634;-0.946;2024-02-15T02:48:37;3.85;;;2.63;;
56171;SDS011;42052;41.634;-0.946;2024-02-15T02:51:03;4.40;;;3.00;;
56171;SDS011;42052;41.634;-0.946;2024-02-15T02:53:30;6.93;;;2.75;;
56171;SDS011;42052;41.634;-0.946;2024-02-15T02:55:56;5.45;;;2.60;;
56171;SDS011;42052;41.634;-0.946;2024-02-15T02:58:22;6.72;;;2.90;;
56171;SDS011;42052;41.634;-0.946;2024-02-15T03:00:48;4.30;;;2.55;;
56171;SDS011;42052;41.634;-0.946;2024-02-15T03:03:15;4.13;;;2.72;;
56171;SDS011;42052;41.634;-0.946;2024-02-15T03:05:41;5.35;;;2.75;;
56171;SDS011;42052;41.634;-0.946;2024-02-15T03:08:13;4.65;;;2.83;;
56171;SDS011;42052;41.634;-0.946;2024-02-15T03:10:42;4.07;;;2.80;;
56171;SDS011;42052;41.634;-0.946;2024-02-15T03:13:08;7.10;;;2.72;;
56171;SDS011;42052;41.634;-0.946;2024-02-15T03:15:35;3.97;;;2.60;;
56171;SDS011;42052;41.634;-0.946;2024-02-15T03:18:02;4.32;;;2.53;;
56171;SDS011;42052;41.634;-0.946;2024-02-15T03:20:32;4.15;;;2.65;;
56171;SDS011;42052;41.634;-0.946;2024-02-15T03:23:00;4.25;;;2.60;;
56171;SDS011;42052;41.634;-0.946;2024-02-15T03:25:27;4.00;;;2.65;;
56171;SDS011;42052;41.634;-0.946;2024-02-15T03:27:57;3.75;;;2.80;;
56171;SDS011;42052;41.634;-0.946;2024-02-15T03:30:29;4.22;;;2.72;;
56171;SDS011;42052;41.634;-0.946;2024-02-15T03:32:57;4.95;;;2.80;;
56171;SDS011;42052;41.634;-0.946;2024-02-15T03:35:28;4.07;;;2.50;;
56171;SDS011;42052;41.634;-0.946;2024-02-15T03:37:56;3.60;;;2.67;;
56171;SDS011;42052;41.634;-0.946;2024-02-15T03:40:23;3.95;;;2.58;;
56171;SDS011;42052;41.634;-0.946;2024-02-15T03:42:54;4.97;;;2.80;;
56171;SDS011;42052;41.634;-0.946;2024-02-15T03:45:21;4.90;;;2.90;;
56171;SDS011;42052;41.634;-0.946;2024-02-15T03:47:50;3.78;;;2.60;;
56171;SDS011;42052;41.634;-0.946;2024-02-15T03:50:16;4.43;;;2.55;;
56171;SDS011;42052;41.634;-0.946;2024-02-15T03:52:44;3.85;;;2.78;;
56171;SDS011;42052;41.634;-0.946;2024-02-15T03:55:10;8.80;;;2.78;;
56171;SDS011;42052;41.634;-0.946;2024-02-15T03:57:40;4.28;;;2.95;;
56171;SDS011;42052;41.634;-0.946;2024-02-15T04:00:08;5.80;;;3.10;;
56171;SDS011;42052;41.634;-0.946;2024-02-15T04:02:36;3.95;;;2.53;;
56171;SDS011;42052;41.634;-0.946;2024-02-15T04:05:05;4.40;;;2.85;;
56171;SDS011;42052;41.634;-0.946;2024-02-15T04:07:32;5.05;;;2.85;;
56171;SDS011;42052;41.634;-0.946;2024-02-15T04:09:58;5.20;;;2.67;;
56171;SDS011;42052;41.634;-0.946;2024-02-15T04:12:26;5.30;;;2.45;;
56171;SDS011;42052;41.634;-0.946;2024-02-15T04:14:52;3.45;;;2.40;;
56171;SDS011;42052;41.634;-0.946;2024-02-15T04:17:19;5.30;;;3.10;;
56171;SDS011;42052;41.634;-0.946;2024-02-15T04:19:47;3.83;;;2.45;;
56171;SDS011;42052;41.634;-0.946;2024-02-15T04:22:15;3.90;;;2.67;;
56171;SDS011;42052;41.634;-0.946;2024-02-15T04:24:42;3.90;;;2.60;;
56171;SDS011;42052;41.634;-0.946;2024-02-15T04:27:11;4.05;;;2.90;;
56171;SDS011;42052;41.634;-0.946;2024-02-15T04:29:38;4.35;;;2.70;;
56171;SDS011;42052;41.634;-0.946;2024-02-15T04:32:09;3.95;;;2.47;;
56171;SDS011;42052;41.634;-0.946;2024-02-15T04:34:36;4.85;;;2.78;;
56171;SDS011;42052;41.634;-0.946;2024-02-15T04:37:03;3.72;;;2.53;;
56171;SDS011;42052;41.634;-0.946;2024-02-15T04:39:35;4.25;;;2.88;;
56171;SDS011;42052;41.634;-0.946;2024-02-15T04:42:01;3.88;;;2.60;;
56171;SDS011;42052;41.634;-0.946;2024-02-15T04:44:28;4.60;;;2.70;;
56171;SDS011;42052;41.634;-0.946;2024-02-15T04:46:54;4.53;;;2.78;;
56171;SDS011;42052;41.634;-0.946;2024-02-15T04:49:20;3.20;;;2.67;;
56171;SDS011;42052;41.634;-0.946;2024-02-15T04:51:47;4.65;;;2.60;;
56171;SDS011;42052;41.634;-0.946;2024-02-15T04:54:14;3.42;;;2.70;;
56171;SDS011;42052;41.634;-0.946;2024-02-15T04:56:40;3.80;;;2.63;;
56171;SDS011;42052;41.634;-0.946;2024-02-15T04:59:09;4.07;;;2.70;;
56171;SDS011;42052;41.634;-0.946;2024-02-15T05:01:40;3.83;;;2.50;;
56171;SDS011;42052;41.634;-0.946;2024-02-15T05:04:11;4.20;;;2.80;;
56171;SDS011;42052;41.634;-0.946;2024-02-15T05:06:38;2.95;;;2.47;;
56171;SDS011;42052;41.634;-0.946;2024-02-15T05:09:05;5.05;;;2.72;;
56171;SDS011;42052;41.634;-0.946;2024-02-15T05:11:38;3.30;;;2.75;;
56171;SDS011;42052;41.634;-0.946;2024-02-15T05:14:14;5.35;;;3.00;;
56171;SDS011;42052;41.634;-0.946;2024-02-15T05:16:51;3.95;;;2.83;;
56171;SDS011;42052;41.634;-0.946;2024-02-15T05:19:17;5.50;;;2.42;;
56171;SDS011;42052;41.634;-0.946;2024-02-15T05:21:43;4.15;;;2.90;;
56171;SDS011;42052;41.634;-0.946;2024-02-15T05:24:11;3.42;;;2.60;;
56171;SDS011;42052;41.634;-0.946;2024-02-15T05:26:43;3.55;;;2.35;;
56171;SDS011;42052;41.634;-0.946;2024-02-15T05:29:14;4.05;;;2.50;;
56171;SDS011;42052;41.634;-0.946;2024-02-15T05:31:40;4.45;;;2.58;;
56171;SDS011;42052;41.634;-0.946;2024-02-15T05:34:06;4.20;;;2.50;;
56171;SDS011;42052;41.634;-0.946;2024-02-15T05:36:33;13.93;;;2.97;;
56171;SDS011;42052;41.634;-0.946;2024-02-15T05:39:00;2.95;;;2.28;;
56171;SDS011;42052;41.634;-0.946;2024-02-15T05:41:27;3.33;;;2.53;;
56171;SDS011;42052;41.634;-0.946;2024-02-15T05:43:54;3.88;;;2.30;;
56171;SDS011;42052;41.634;-0.946;2024-02-15T05:46:23;3.30;;;2.55;;
56171;SDS011;42052;41.634;-0.946;2024-02-15T05:48:49;4.05;;;2.50;;
56171;SDS011;42052;41.634;-0.946;2024-02-15T05:51:16;4.15;;;2.78;;
56171;SDS011;42052;41.634;-0.946;2024-02-15T05:53:42;5.40;;;2.38;;
56171;SDS011;42052;41.634;-0.946;2024-02-15T05:56:09;3.45;;;2.22;;
56171;SDS011;42052;41.634;-0.946;2024-02-15T05:58:38;3.95;;;2.50;;
56171;SDS011;42052;41.634;-0.946;2024-02-15T06:01:05;3.67;;;2.45;;
56171;SDS011;42052;41.634;-0.946;2024-02-15T06:03:32;3.22;;;2.20;;
56171;SDS011;42052;41.634;-0.946;2024-02-15T06:06:02;4.57;;;2.40;;
56171;SDS011;42052;41.634;-0.946;2024-02-15T06:08:32;4.18;;;2.50;;
56171;SDS011;42052;41.634;-0.946;2024-02-15T06:10:58;3.17;;;2.40;;
56171;SDS011;42052;41.634;-0.946;2024-02-15T06:13:25;3.97;;;2.38;;
56171;SDS011;42052;41.634;-0.946;2024-02-15T06:15:52;3.92;;;2.42;;
56171;SDS011;42052;41.634;-0.946;2024-02-15T06:18:27;3.97;;;2.47;;
56171;SDS011;42052;41.634;-0.946;2024-02-15T06:20:57;4.72;;;2.60;;
56171;SDS011;42052;41.634;-0.946;2024-02-15T06:23:24;4.00;;;2.25;;
56171;SDS011;42052;41.634;-0.946;2024-02-15T06:25:52;4.40;;;2.33;;
56171;SDS011;42052;41.634;-0.946;2024-02-15T06:28:20;4.13;;;2.28;;
56171;SDS011;42052;41.634;-0.946;2024-02-15T06:31:05;4.07;;;2.63;;
56171;SDS011;42052;41.634;-0.946;2024-02-15T06:33:50;4.28;;;2.40;;
56171;SDS011;42052;41.634;-0.946;2024-02-15T06:36:39;4.85;;;2.40;;
56171;SDS011;42052;41.634;-0.946;2024-02-15T06:39:39;4.88;;;2.50;;
56171;SDS011;42052;41.634;-0.946;2024-02-15T06:42:13;6.45;;;2.45;;
56171;SDS011;42052;41.634;-0.946;2024-02-15T06:44:44;5.28;;;2.10;;
56171;SDS011;42052;41.634;-0.946;2024-02-15T06:47:11;7.97;;;3.13;;
56171;SDS011;42052;41.634;-0.946;2024-02-15T06:49:38;6.05;;;2.83;;
56171;SDS011;42052;41.634;-0.946;2024-02-15T06:52:08;5.82;;;3.03;;
56171;SDS011;42052;41.634;-0.946;2024-02-15T06:54:35;3.53;;;2.70;;
56171;SDS011;42052;41.634;-0.946;2024-02-15T06:57:03;4.57;;;2.53;;
56171;SDS011;42052;41.634;-0.946;2024-02-15T06:59:29;6.07;;;2.50;;
56171;SDS011;42052;41.634;-0.946;2024-02-15T07:01:59;5.47;;;2.67;;
56171;SDS011;42052;41.634;-0.946;2024-02-15T07:04:26;4.78;;;2.67;;
56171;SDS011;42052;41.634;-0.946;2024-02-15T07:06:52;5.47;;;2.80;;
56171;SDS011;42052;41.634;-0.946;2024-02-15T07:09:22;3.75;;;2.50;;
56171;SDS011;42052;41.634;-0.946;2024-02-15T07:11:50;5.55;;;2.50;;
56171;SDS011;42052;41.634;-0.946;2024-02-15T07:14:16;5.57;;;3.08;;
56171;SDS011;42052;41.634;-0.946;2024-02-15T07:16:45;5.38;;;2.47;;
56171;SDS011;42052;41.634;-0.946;2024-02-15T07:19:12;4.25;;;2.55;;
56171;SDS011;42052;41.634;-0.946;2024-02-15T07:21:38;4.10;;;2.55;;
56171;SDS011;42052;41.634;-0.946;2024-02-15T07:24:05;5.20;;;2.45;;
56171;SDS011;42052;41.634;-0.946;2024-02-15T07:26:31;3.20;;;2.60;;
56171;SDS011;42052;41.634;-0.946;2024-02-15T07:28:58;4.13;;;2.60;;
56171;SDS011;42052;41.634;-0.946;2024-02-15T07:31:28;3.75;;;2.67;;
56171;SDS011;42052;41.634;-0.946;2024-02-15T07:33:54;4.68;;;2.83;;
56171;SDS011;42052;41.634;-0.946;2024-02-15T07:36:21;5.45;;;2.58;;
56171;SDS011;42052;41.634;-0.946;2024-02-15T07:38:47;4.82;;;2.70;;
56171;SDS011;42052;41.634;-0.946;2024-02-15T07:41:14;5.97;;;3.00;;
56171;SDS011;42052;41.634;-0.946;2024-02-15T07:43:43;3.75;;;2.72;;
56171;SDS011;42052;41.634;-0.946;2024-02-15T07:46:12;4.63;;;2.78;;
56171;SDS011;42052;41.634;-0.946;2024-02-15T07:48:44;4.38;;;2.67;;
56171;SDS011;42052;41.634;-0.946;2024-02-15T07:51:14;4.78;;;2.80;;
56171;SDS011;42052;41.634;-0.946;2024-02-15T07:53:41;4.13;;;2.83;;
56171;SDS011;42052;41.634;-0.946;2024-02-15T07:56:08;3.35;;;2.53;;
56171;SDS011;42052;41.634;-0.946;2024-02-15T07:58:42;3.67;;;2.80;;
56171;SDS011;42052;41.634;-0.946;2024-02-15T08:01:12;3.28;;;2.58;;
56171;SDS011;42052;41.634;-0.946;2024-02-15T08:03:39;3.80;;;2.67;;
56171;SDS011;42052;41.634;-0.946;2024-02-15T08:06:11;4.25;;;2.65;;
56171;SDS011;42052;41.634;-0.946;2024-02-15T08:08:41;5.10;;;2.95;;
56171;SDS011;42052;41.634;-0.946;2024-02-15T08:11:10;4.97;;;3.03;;
56171;SDS011;42052;41.634;-0.946;2024-02-15T08:16:15;4.47;;;2.97;;
56171;SDS011;42052;41.634;-0.946;2024-02-15T08:18:45;5.22;;;3.38;;
56171;SDS011;42052;41.634;-0.946;2024-02-15T08:21:11;4.95;;;2.92;;
56171;SDS011;42052;41.634;-0.946;2024-02-15T08:23:38;4.57;;;2.95;;
56171;SDS011;42052;41.634;-0.946;2024-02-15T08:26:04;4.10;;;2.55;;
56171;SDS011;42052;41.634;-0.946;2024-02-15T08:28:30;5.03;;;2.90;;
56171;SDS011;42052;41.634;-0.946;2024-02-15T08:30:56;5.60;;;3.20;;
56171;SDS011;42052;41.634;-0.946;2024-02-15T08:33:23;4.75;;;3.25;;
56171;SDS011;42052;41.634;-0.946;2024-02-15T08:35:49;4.45;;;2.92;;
56171;SDS011;42052;41.634;-0.946;2024-02-15T08:38:16;3.50;;;2.58;;
56171;SDS011;42052;41.634;-0.946;2024-02-15T08:40:46;4.55;;;2.70;;
56171;SDS011;42052;41.634;-0.946;2024-02-15T08:43:12;7.13;;;3.22;;
56171;SDS011;42052;41.634;-0.946;2024-02-15T08:45:40;4.75;;;3.08;;
56171;SDS011;42052;41.634;-0.946;2024-02-15T08:48:07;3.67;;;2.63;;
56171;SDS011;42052;41.634;-0.946;2024-02-15T08:50:33;4.15;;;3.05;;
56171;SDS011;42052;41.634;-0.946;2024-02-15T08:52:59;5.35;;;3.30;;
56171;SDS011;42052;41.634;-0.946;2024-02-15T08:55:26;4.25;;;2.80;;
56171;SDS011;42052;41.634;-0.946;2024-02-15T08:57:53;5.10;;;2.92;;
56171;SDS011;42052;41.634;-0.946;2024-02-15T09:00:19;5.40;;;3.10;;
56171;SDS011;42052;41.634;-0.946;2024-02-15T09:02:46;5.70;;;3.10;;
56171;SDS011;42052;41.634;-0.946;2024-02-15T09:05:12;4.15;;;3.22;;
56171;SDS011;42052;41.634;-0.946;2024-02-15T09:07:42;4.00;;;2.90;;
56171;SDS011;42052;41.634;-0.946;2024-02-15T09:10:09;3.45;;;2.83;;
56171;SDS011;42052;41.634;-0.946;2024-02-15T09:12:36;4.00;;;3.00;;
56171;SDS011;42052;41.634;-0.946;2024-02-15T09:15:05;4.75;;;3.42;;
56171;SDS011;42052;41.634;-0.946;2024-02-15T09:17:41;4.15;;;2.97;;
56171;SDS011;42052;41.634;-0.946;2024-02-15T09:20:09;3.75;;;3.05;;
56171;SDS011;42052;41.634;-0.946;2024-02-15T09:22:44;3.83;;;3.13;;
56171;SDS011;42052;41.634;-0.946;2024-02-15T09:25:14;7.22;;;3.60;;
56171;SDS011;42052;41.634;-0.946;2024-02-15T09:27:40;5.32;;;3.05;;
56171;SDS011;42052;41.634;-0.946;2024-02-15T09:30:06;5.55;;;3.03;;
56171;SDS011;42052;41.634;-0.946;2024-02-15T09:32:35;5.60;;;3.20;;
56171;SDS011;42052;41.634;-0.946;2024-02-15T09:35:01;4.05;;;2.90;;
56171;SDS011;42052;41.634;-0.946;2024-02-15T09:37:28;4.75;;;3.00;;
56171;SDS011;42052;41.634;-0.946;2024-02-15T09:39:55;5.35;;;3.10;;
56171;SDS011;42052;41.634;-0.946;2024-02-15T09:42:21;6.07;;;3.42;;
56171;SDS011;42052;41.634;-0.946;2024-02-15T09:44:49;5.53;;;3.22;;
56171;SDS011;42052;41.634;-0.946;2024-02-15T09:47:16;7.05;;;3.30;;
56171;SDS011;42052;41.634;-0.946;2024-02-15T09:49:44;6.47;;;3.60;;
56171;SDS011;42052;41.634;-0.946;2024-02-15T09:52:10;5.85;;;3.33;;
56171;SDS011;42052;41.634;-0.946;2024-02-15T09:54:41;4.97;;;3.15;;
56171;SDS011;42052;41.634;-0.946;2024-02-15T09:57:08;4.57;;;2.90;;
56171;SDS011;42052;41.634;-0.946;2024-02-15T09:59:35;4.38;;;3.13;;
56171;SDS011;42052;41.634;-0.946;2024-02-15T10:02:02;5.00;;;3.30;;
56171;SDS011;42052;41.634;-0.946;2024-02-15T10:04:28;5.15;;;3.33;;
56171;SDS011;42052;41.634;-0.946;2024-02-15T10:06:54;4.60;;;3.22;;
56171;SDS011;42052;41.634;-0.946;2024-02-15T10:09:27;4.70;;;3.10;;
56171;SDS011;42052;41.634;-0.946;2024-02-15T10:11:57;5.93;;;3.35;;
56171;SDS011;42052;41.634;-0.946;2024-02-15T10:14:25;4.68;;;2.97;;
56171;SDS011;42052;41.634;-0.946;2024-02-15T10:16:51;5.03;;;3.17;;
56171;SDS011;42052;41.634;-0.946;2024-02-15T10:19:19;4.18;;;3.10;;
56171;SDS011;42052;41.634;-0.946;2024-02-15T10:21:53;4.00;;;3.05;;
56171;SDS011;42052;41.634;-0.946;2024-02-15T10:24:23;5.35;;;3.17;;
56171;SDS011;42052;41.634;-0.946;2024-02-15T10:26:59;3.95;;;3.10;;
56171;SDS011;42052;41.634;-0.946;2024-02-15T10:29:31;6.13;;;3.15;;
56171;SDS011;42052;41.634;-0.946;2024-02-15T10:31:57;5.45;;;3.03;;
56171;SDS011;42052;41.634;-0.946;2024-02-15T10:34:25;4.55;;;2.88;;
56171;SDS011;42052;41.634;-0.946;2024-02-15T10:36:55;4.40;;;2.80;;
56171;SDS011;42052;41.634;-0.946;2024-02-15T10:39:44;4.28;;;2.97;;
56171;SDS011;42052;41.634;-0.946;2024-02-15T10:42:10;4.10;;;2.85;;
56171;SDS011;42052;41.634;-0.946;2024-02-15T10:44:38;3.45;;;2.65;;
56171;SDS011;42052;41.634;-0.946;2024-02-15T10:47:03;3.97;;;3.15;;
56171;SDS011;42052;41.634;-0.946;2024-02-15T10:49:32;5.65;;;3.10;;
56171;SDS011;42052;41.634;-0.946;2024-02-15T10:52:01;4.63;;;2.85;;
56171;SDS011;42052;41.634;-0.946;2024-02-15T10:57:12;4.15;;;2.80;;
56171;SDS011;42052;41.634;-0.946;2024-02-15T10:59:48;3.30;;;2.67;;
56171;SDS011;42052;41.634;-0.946;2024-02-15T11:04:55;3.13;;;2.55;;
56171;SDS011;42052;41.634;-0.946;2024-02-15T11:07:31;3.67;;;2.72;;
56171;SDS011;42052;41.634;-0.946;2024-02-15T11:09:57;4.97;;;2.83;;
56171;SDS011;42052;41.634;-0.946;2024-02-15T11:12:27;5.72;;;2.67;;
56171;SDS011;42052;41.634;-0.946;2024-02-15T11:14:54;3.85;;;2.95;;
56171;SDS011;42052;41.634;-0.946;2024-02-15T11:23:13;4.10;;;2.83;;
56171;SDS011;42052;41.634;-0.946;2024-02-15T11:25:50;4.43;;;2.80;;
56171;SDS011;42052;41.634;-0.946;2024-02-15T11:30:52;3.40;;;2.78;;
56171;SDS011;42052;41.634;-0.946;2024-02-15T11:33:31;3.42;;;2.72;;
56171;SDS011;42052;41.634;-0.946;2024-02-15T11:36:07;4.25;;;2.72;;
56171;SDS011;42052;41.634;-0.946;2024-02-15T11:38:35;4.47;;;2.58;;
56171;SDS011;42052;41.634;-0.946;2024-02-15T11:41:05;4.05;;;2.80;;
56171;SDS011;42052;41.634;-0.946;2024-02-15T11:46:15;4.40;;;2.45;;
56171;SDS011;42052;41.634;-0.946;2024-02-15T11:48:47;3.03;;;2.40;;
56171;SDS011;42052;41.634;-0.946;2024-02-15T11:54:03;4.40;;;2.53;;
56171;SDS011;42052;41.634;-0.946;2024-02-15T11:59:39;4.60;;;2.88;;
56171;SDS011;42052;41.634;-0.946;2024-02-15T12:02:24;4.07;;;2.60;;
56171;SDS011;42052;41.634;-0.946;2024-02-15T12:05:08;3.55;;;2.60;;
56171;SDS011;42052;41.634;-0.946;2024-02-15T12:07:53;3.50;;;2.40;;
56171;SDS011;42052;41.634;-0.946;2024-02-15T12:10:37;3.80;;;2.40;;
56171;SDS011;42052;41.634;-0.946;2024-02-15T12:13:21;4.35;;;2.30;;
56171;SDS011;42052;41.634;-0.946;2024-02-15T12:16:06;3.35;;;2.30;;
56171;SDS011;42052;41.634;-0.946;2024-02-15T12:18:50;2.92;;;2.42;;
56171;SDS011;42052;41.634;-0.946;2024-02-15T12:21:20;3.28;;;2.20;;
56171;SDS011;42052;41.634;-0.946;2024-02-15T12:23:50;3.03;;;2.30;;
56171;SDS011;42052;41.634;-0.946;2024-02-15T12:26:20;3.63;;;2.45;;
56171;SDS011;42052;41.634;-0.946;2024-02-15T12:28:51;3.15;;;2.17;;
56171;SDS011;42052;41.634;-0.946;2024-02-15T12:31:20;3.75;;;2.50;;
56171;SDS011;42052;41.634;-0.946;2024-02-15T12:33:46;3.50;;;2.65;;
56171;SDS011;42052;41.634;-0.946;2024-02-15T12:36:14;3.15;;;2.33;;
56171;SDS011;42052;41.634;-0.946;2024-02-15T12:38:42;5.55;;;2.45;;
56171;SDS011;42052;41.634;-0.946;2024-02-15T12:41:21;2.90;;;2.15;;
56171;SDS011;42052;41.634;-0.946;2024-02-15T12:43:52;3.45;;;2.42;;
56171;SDS011;42052;41.634;-0.946;2024-02-15T12:46:19;4.15;;;2.33;;
56171;SDS011;42052;41.634;-0.946;2024-02-15T12:48:45;3.38;;;2.55;;
56171;SDS011;42052;41.634;-0.946;2024-02-15T12:51:14;3.05;;;2.15;;
56171;SDS011;42052;41.634;-0.946;2024-02-15T12:53:41;3.03;;;2.20;;
56171;SDS011;42052;41.634;-0.946;2024-02-15T12:56:07;3.33;;;2.50;;
56171;SDS011;42052;41.634;-0.946;2024-02-15T12:58:36;3.90;;;2.38;;
56171;SDS011;42052;41.634;-0.946;2024-02-15T13:01:04;4.35;;;2.47;;
56171;SDS011;42052;41.634;-0.946;2024-02-15T13:03:30;3.58;;;2.30;;
56171;SDS011;42052;41.634;-0.946;2024-02-15T13:05:56;2.88;;;1.77;;
56171;SDS011;42052;41.634;-0.946;2024-02-15T13:08:22;2.80;;;2.20;;
56171;SDS011;42052;41.634;-0.946;2024-02-15T13:10:48;3.13;;;2.40;;
56171;SDS011;42052;41.634;-0.946;2024-02-15T13:13:15;4.03;;;2.22;;
56171;SDS011;42052;41.634;-0.946;2024-02-15T13:15:41;3.67;;;1.85;;
56171;SDS011;42052;41.634;-0.946;2024-02-15T13:18:07;2.95;;;2.15;;
56171;SDS011;42052;41.634;-0.946;2024-02-15T13:20:38;3.20;;;2.10;;
56171;SDS011;42052;41.634;-0.946;2024-02-15T13:23:05;2.40;;;2.10;;
56171;SDS011;42052;41.634;-0.946;2024-02-15T13:25:40;3.20;;;2.13;;
56171;SDS011;42052;41.634;-0.946;2024-02-15T13:28:08;2.53;;;1.90;;
56171;SDS011;42052;41.634;-0.946;2024-02-15T13:30:38;3.20;;;2.08;;
56171;SDS011;42052;41.634;-0.946;2024-02-15T13:33:04;2.85;;;1.90;;
56171;SDS011;42052;41.634;-0.946;2024-02-15T13:35:31;2.30;;;1.73;;
56171;SDS011;42052;41.634;-0.946;2024-02-15T13:37:57;3.20;;;1.90;;
56171;SDS011;42052;41.634;-0.946;2024-02-15T13:40:23;3.45;;;1.90;;
56171;SDS011;42052;41.634;-0.946;2024-02-15T13:42:51;3.17;;;2.00;;
56171;SDS011;42052;41.634;-0.946;2024-02-15T13:45:24;3.58;;;2.10;;
56171;SDS011;42052;41.634;-0.946;2024-02-15T13:47:56;3.00;;;1.80;;
56171;SDS011;42052;41.634;-0.946;2024-02-15T13:50:22;2.72;;;1.85;;
56171;SDS011;42052;41.634;-0.946;2024-02-15T13:52:49;2.60;;;2.10;;
56171;SDS011;42052;41.634;-0.946;2024-02-15T13:55:16;4.32;;;2.13;;
56171;SDS011;42052;41.634;-0.946;2024-02-15T13:57:45;3.08;;;2.15;;
56171;SDS011;42052;41.634;-0.946;2024-02-15T14:00:13;3.72;;;1.98;;
56171;SDS011;42052;41.634;-0.946;2024-02-15T14:02:53;3.45;;;2.05;;
56171;SDS011;42052;41.634;-0.946;2024-02-15T14:05:20;2.70;;;2.00;;
56171;SDS011;42052;41.634;-0.946;2024-02-15T14:07:51;2.15;;;1.88;;
56171;SDS011;42052;41.634;-0.946;2024-02-15T14:10:23;3.30;;;2.17;;
56171;SDS011;42052;41.634;-0.946;2024-02-15T14:13:01;4.10;;;2.15;;
56171;SDS011;42052;41.634;-0.946;2024-02-15T14:15:33;2.70;;;1.90;;
56171;SDS011;42052;41.634;-0.946;2024-02-15T14:18:03;3.13;;;2.00;;
56171;SDS011;42052;41.634;-0.946;2024-02-15T14:20:35;2.88;;;1.70;;
56171;SDS011;42052;41.634;-0.946;2024-02-15T14:23:02;3.33;;;1.95;;
56171;SDS011;42052;41.634;-0.946;2024-02-15T14:25:31;3.08;;;1.92;;
56171;SDS011;42052;41.634;-0.946;2024-02-15T14:27:57;2.97;;;1.80;;
56171;SDS011;42052;41.634;-0.946;2024-02-15T14:30:26;2.40;;;1.90;;
56171;SDS011;42052;41.634;-0.946;2024-02-15T14:33:11;2.08;;;1.67;;
56171;SDS011;42052;41.634;-0.946;2024-02-15T14:35:40;2.30;;;1.88;;
56171;SDS011;42052;41.634;-0.946;2024-02-15T14:38:08;3.28;;;1.80;;
56171;SDS011;42052;41.634;-0.946;2024-02-15T14:40:39;4.07;;;1.75;;
56171;SDS011;42052;41.634;-0.946;2024-02-15T14:43:06;3.22;;;1.90;;
56171;SDS011;42052;41.634;-0.946;2024-02-15T14:45:40;2.00;;;1.70;;
56171;SDS011;42052;41.634;-0.946;2024-02-15T14:48:06;2.70;;;1.88;;
56171;SDS011;42052;41.634;-0.946;2024-02-15T14:50:36;2.60;;;2.00;;
56171;SDS011;42052;41.634;-0.946;2024-02-15T14:53:02;2.60;;;2.00;;
56171;SDS011;42052;41.634;-0.946;2024-02-15T14:55:28;3.33;;;1.92;;
56171;SDS011;42052;41.634;-0.946;2024-02-15T14:57:56;3.28;;;1.90;;
56171;SDS011;42052;41.634;-0.946;2024-02-15T15:00:23;3.00;;;2.03;;
56171;SDS011;42052;41.634;-0.946;2024-02-15T15:02:50;2.25;;;1.77;;
56171;SDS011;42052;41.634;-0.946;2024-02-15T15:05:16;2.28;;;1.83;;
56171;SDS011;42052;41.634;-0.946;2024-02-15T15:08:00;1.85;;;1.70;;